Bookmark and Share
Track history (hours):
 

Al Kharsaah

Last reported at 2014-Apr-23 12:06 UTC. Time now 2014-Apr-25 06:09 UTC.
Position N 38°12' W 009°48'.

Length 315 m; draft 12.2 m.

Type: Ship (hazmat cat D). MMSI: 309333000.

NotesDate/timePositionNaut miles runAvg speedWind from/ knotsBaromVisibWave heightAir tempDewpointWater temp
2014-Apr-23 12:06N 38°12' W 009°48'815.4
2014-Apr-23 11:33N 38°04' W 009°46'1515.4
2014-Apr-23 10:33N 37°48' W 009°43'1515.2
2014-Apr-23 09:34N 37°34' W 009°39'3415.1
2014-Apr-23 07:16N 37°00' W 009°27'3014.5
2014-Apr-23 05:11N 36°38' W 009°02'1015.9
2014-Apr-23 04:33N 36°35' W 008°50'1616.1
2014-Apr-23 03:33N 36°30' W 008°31'15015.0
2014-Apr-22 17:34N 35°59' W 005°29'1110.9
2014-Apr-22 16:34N 36°01' W 005°16'1312.6
2014-Apr-22 15:31N 36°04' W 005°00'65915.2
2014-Apr-20 20:13N 37°51' E 008°34'4515.0
2014-Apr-20 17:14N 37°44' E 009°30'8615.2
2014-Apr-20 11:33N 37°25' E 011°17'1716.8
2014-Apr-20 10:33N 37°16' E 011°35'10416.6
2014-Apr-20 04:17N 36°42' E 013°38'1216.3
2014-Apr-20 03:33N 36°39' E 013°52'1616.1
2014-Apr-20 02:33N 36°34' E 014°11'1816.5
2014-Apr-20 01:27N 36°28' E 014°32'1516.2
2014-Apr-20 00:33N 36°23' E 014°50'1616.4
2014-Apr-19 23:33N 36°18' E 015°09'2016.9
2014-Apr-19 22:23N 36°12' E 015°32'73516.3
2014-Apr-18 01:21N 32°26' E 029°39'1816.7
2014-Apr-18 00:16N 32°20' E 030°00'1216.6
2014-Apr-17 23:33N 32°16' E 030°13'1616.4
2014-Apr-17 22:33N 32°11' E 030°31'1616.5
2014-Apr-17 21:33N 32°06' E 030°50'1716.9
2014-Apr-17 20:33N 31°59' E 031°08'2217.0
2014-Apr-17 19:15N 31°52' E 031°33'  

Dump ship's entire track history

sailing weather and tide predictions

Al Kharsaah — C6VG3 — position and weather